createdAt,value
2019-02-08T00:01:45.539Z,99796.84
2019-02-08T00:04:50.764Z,99800.12
2019-02-08T00:07:55.972Z,99794.41
2019-02-08T00:11:02.275Z,99793.14
2019-02-08T00:14:07.681Z,99800.95
2019-02-08T00:17:12.851Z,99794.60
2019-02-08T00:20:18.228Z,99790.52
2019-02-08T00:23:26.683Z,99790.70
2019-02-08T00:26:30.278Z,99799.48
2019-02-08T00:29:35.431Z,99803.65
2019-02-08T00:32:40.523Z,99805.68
2019-02-08T00:35:45.718Z,99813.47
2019-02-08T00:38:50.815Z,99811.11
2019-02-08T00:41:56.018Z,99807.98
2019-02-08T00:45:01.133Z,99815.64
2019-02-08T00:48:06.399Z,99819.13
2019-02-08T00:51:11.476Z,99824.47
2019-02-08T00:54:16.706Z,99827.88
2019-02-08T00:57:21.891Z,99840.89
2019-02-08T01:00:27.052Z,99839.93
2019-02-08T01:03:32.701Z,99839.16
2019-02-08T01:06:38.341Z,99843.34
2019-02-08T01:09:43.494Z,99845.98
2019-02-08T01:12:48.782Z,99846.07
2019-02-08T01:15:54.253Z,99851.91
2019-02-08T01:18:59.349Z,99841.73
2019-02-08T01:22:06.914Z,99840.78
2019-02-08T01:25:15.243Z,99841.75
2019-02-08T01:28:20.378Z,99837.99
2019-02-08T01:31:25.489Z,99840.42
2019-02-08T01:34:30.672Z,99848.08
2019-02-08T01:37:35.760Z,99830.81
2019-02-08T01:40:40.994Z,99833.52
2019-02-08T01:43:46.135Z,99835.66
2019-02-08T01:46:51.261Z,99832.55
2019-02-08T01:49:56.443Z,99838.95
2019-02-08T01:53:01.768Z,99843.51
2019-02-08T01:56:06.974Z,99846.33
2019-02-08T01:59:12.204Z,99844.58
2019-02-08T02:02:17.427Z,99846.39
2019-02-08T02:05:22.629Z,99844.36
2019-02-08T02:08:27.776Z,99836.41
2019-02-08T02:11:32.903Z,99850.55
2019-02-08T02:14:38.162Z,99847.92
2019-02-08T02:17:43.293Z,99852.72
2019-02-08T02:20:48.557Z,99853.84
2019-02-08T02:23:56.212Z,99849.92
2019-02-08T02:27:00.579Z,99853.22
2019-02-08T02:30:08.305Z,99847.28
2019-02-08T02:33:13.934Z,99844.05
2019-02-08T02:36:19.056Z,99847.02
2019-02-08T02:39:24.371Z,99851.89
2019-02-08T02:42:29.530Z,99849.03
2019-02-08T02:45:36.468Z,99850.35
2019-02-08T02:48:41.591Z,99848.06
2019-02-08T02:51:46.717Z,99849.83
2019-02-08T02:54:52.033Z,99849.80
2019-02-08T02:57:57.496Z,99843.89
2019-02-08T03:01:02.685Z,99843.34
2019-02-08T03:04:07.960Z,99835.19
2019-02-08T03:07:13.067Z,99834.36
2019-02-08T03:10:19.001Z,99839.25
2019-02-08T03:13:24.261Z,99822.25
2019-02-08T03:16:29.449Z,99827.66
2019-02-08T03:19:34.565Z,99834.06
2019-02-08T03:22:39.755Z,99827.73
2019-02-08T03:25:44.945Z,99826.41
2019-02-08T03:28:50.219Z,99823.55
2019-02-08T03:31:55.276Z,99827.18
2019-02-08T03:35:00.402Z,99825.36
2019-02-08T03:38:05.765Z,99824.94
2019-02-08T03:41:10.965Z,99839.02
2019-02-08T03:44:16.188Z,99840.29
2019-02-08T03:47:21.328Z,99839.57
2019-02-08T03:50:26.460Z,99846.33
2019-02-08T03:53:31.614Z,99837.63
2019-02-08T03:56:36.705Z,99833.23
2019-02-08T03:59:41.796Z,99835.61
2019-02-08T04:02:46.973Z,99829.46
2019-02-08T04:05:52.181Z,99830.97
2019-02-08T04:08:57.343Z,99827.92
2019-02-08T04:12:02.487Z,99832.87
2019-02-08T04:15:09.901Z,99830.29
2019-02-08T04:18:15.042Z,99830.35
2019-02-08T04:21:20.178Z,99835.27
2019-02-08T04:24:30.070Z,99839.17
2019-02-08T04:27:32.165Z,99839.11
2019-02-08T04:30:37.390Z,99846.16
2019-02-08T04:33:43.559Z,99842.13
2019-02-08T04:36:48.706Z,99845.17
2019-02-08T04:39:53.883Z,99848.30
2019-02-08T04:42:59.165Z,99846.45
2019-02-08T04:46:04.257Z,99854.66
2019-02-08T04:49:09.530Z,99853.41
2019-02-08T04:52:14.700Z,99857.44
2019-02-08T04:55:20.350Z,99858.69
2019-02-08T04:58:25.463Z,99847.01
2019-02-08T05:01:30.569Z,99853.95
2019-02-08T05:04:35.750Z,99854.82
2019-02-08T05:07:40.886Z,99850.55
2019-02-08T05:10:46.081Z,99843.02
2019-02-08T05:13:51.226Z,99849.25
2019-02-08T05:16:56.306Z,99857.19
2019-02-08T05:20:01.498Z,99846.94
2019-02-08T05:23:06.741Z,99858.72
2019-02-08T05:26:11.911Z,99863.84
2019-02-08T05:29:17.041Z,99855.20
2019-02-08T05:32:22.183Z,99853.27
2019-02-08T05:35:27.654Z,99847.93
2019-02-08T05:38:32.827Z,99845.34
2019-02-08T05:41:38.081Z,99853.77
2019-02-08T05:44:43.315Z,99847.69
2019-02-08T05:47:48.519Z,99848.95
2019-02-08T05:50:53.657Z,99854.91
2019-02-08T05:53:58.794Z,99847.26
2019-02-08T05:57:03.943Z,99854.14
2019-02-08T06:00:32.161Z,99852.88
2019-02-08T06:03:37.284Z,99852.82
2019-02-08T06:06:42.393Z,99853.19
2019-02-08T06:09:47.536Z,99858.54
2019-02-08T06:12:52.622Z,99854.52
2019-02-08T06:15:57.735Z,99866.07
2019-02-08T06:19:02.865Z,99858.78
2019-02-08T06:22:07.988Z,99864.69
2019-02-08T06:25:13.593Z,99858.28
2019-02-08T06:28:18.810Z,99861.23
2019-02-08T06:31:23.939Z,99859.63
2019-02-08T06:34:29.076Z,99871.13
2019-02-08T06:37:34.278Z,99870.29
2019-02-08T06:40:42.292Z,99874.31
2019-02-08T06:43:47.518Z,99874.13
2019-02-08T06:46:52.639Z,99873.78
2019-02-08T06:49:57.858Z,99872.36
2019-02-08T06:53:03.131Z,99871.69
2019-02-08T06:56:11.043Z,99875.99
2019-02-08T06:59:29.159Z,99877.03
2019-02-08T07:02:43.304Z,99882.05
2019-02-08T07:06:07.423Z,99885.57
2019-02-08T07:09:34.593Z,99885.52
2019-02-08T07:13:04.828Z,99884.82
2019-02-08T07:16:28.952Z,99885.16
2019-02-08T07:19:53.010Z,99889.46
2019-02-08T07:23:32.301Z,99880.27
2019-02-08T07:27:06.692Z,99874.61
2019-02-08T07:30:29.275Z,99871.37
2019-02-08T07:34:05.612Z,99876.96
2019-02-08T07:37:28.636Z,99878.98
2019-02-08T07:41:01.508Z,99892.88
2019-02-08T07:44:42.843Z,99882.98
2019-02-08T07:48:07.635Z,99883.66
2019-02-08T07:51:43.721Z,99882.98
2019-02-08T07:54:57.801Z,99880.08
2019-02-08T07:58:12.375Z,99880.06
2019-02-08T08:01:44.886Z,99874.67
2019-02-08T08:05:08.913Z,99881.53
2019-02-08T08:08:45.186Z,99878.80
2019-02-08T08:12:18.924Z,99878.69
2019-02-08T08:15:37.757Z,99873.23
2019-02-08T08:19:08.390Z,99871.78
2019-02-08T08:22:33.556Z,99872.72
2019-02-08T08:25:59.329Z,99876.99
2019-02-08T08:29:19.718Z,99869.81
2019-02-08T08:32:39.332Z,99873.44
2019-02-08T08:36:16.542Z,99875.06
2019-02-08T08:39:41.770Z,99872.03
2019-02-08T08:43:34.818Z,99865.52
2019-02-08T08:47:06.027Z,99858.77
2019-02-08T08:50:44.618Z,99855.77
2019-02-08T08:54:36.835Z,99864.34
2019-02-08T08:58:04.695Z,99853.73
2019-02-08T09:01:39.701Z,99849.68
2019-02-08T09:05:29.242Z,99844.43
2019-02-08T09:09:26.069Z,99836.48
2019-02-08T09:12:57.403Z,99848.77
2019-02-08T09:16:34.561Z,99840.14
2019-02-08T09:20:17.163Z,99836.95
2019-02-08T09:23:53.851Z,99840.79
2019-02-08T09:27:48.217Z,99837.45
2019-02-08T09:31:44.158Z,99832.30
2019-02-08T09:36:03.926Z,99826.13
2019-02-08T09:39:46.008Z,99826.99
2019-02-08T09:43:26.089Z,99823.82
2019-02-08T09:46:59.721Z,99821.33
2019-02-08T09:50:53.923Z,99826.14
2019-02-08T09:54:36.013Z,99829.64
2019-02-08T09:58:18.246Z,99819.16
2019-02-08T10:01:55.700Z,99814.46
2019-02-08T10:05:53.919Z,99814.39
2019-02-08T10:09:41.648Z,99809.27
2019-02-08T10:13:22.496Z,99809.18
2019-02-08T10:17:10.774Z,99812.53
2019-02-08T10:20:40.474Z,99810.42
2019-02-08T10:24:22.606Z,99812.96
2019-02-08T10:28:12.835Z,99804.44
2019-02-08T10:31:52.248Z,99809.91
2019-02-08T10:35:34.346Z,99806.31
2019-02-08T10:39:44.924Z,99798.16
2019-02-08T10:43:25.927Z,99791.09
2019-02-08T10:47:06.308Z,99782.72
2019-02-08T10:50:55.910Z,99773.11
2019-02-08T10:54:34.228Z,99773.46
2019-02-08T10:58:15.341Z,99771.89
2019-02-08T11:02:04.520Z,99764.86
2019-02-08T11:05:47.131Z,99764.55
2019-02-08T11:09:35.859Z,99760.64
2019-02-08T11:13:46.080Z,99753.48
2019-02-08T11:17:22.601Z,99748.95
2019-02-08T11:23:39.880Z,99733.06
2019-02-08T11:26:45.718Z,99739.73
2019-02-08T11:29:51.078Z,99737.05
2019-02-08T11:32:56.470Z,99737.05
2019-02-08T11:36:01.857Z,99730.34
2019-02-08T11:39:13.816Z,99717.91
2019-02-08T11:42:19.111Z,99720.41
2019-02-08T11:45:24.937Z,99715.25
2019-02-08T11:48:30.175Z,99714.62
2019-02-08T11:51:35.533Z,99712.77
2019-02-08T11:54:40.834Z,99705.94
2019-02-08T11:57:46.253Z,99695.89
2019-02-08T12:00:54.219Z,99693.34
2019-02-08T12:03:59.617Z,99686.60
2019-02-08T12:07:05.122Z,99677.55
2019-02-08T12:10:11.199Z,99666.09
2019-02-08T12:13:16.525Z,99667.63
2019-02-08T12:16:21.829Z,99664.50
2019-02-08T12:19:27.105Z,99664.84
2019-02-08T12:22:32.332Z,99647.34
2019-02-08T12:25:37.678Z,99643.39
2019-02-08T12:28:43.057Z,99639.80
2019-02-08T12:31:48.348Z,99638.35
2019-02-08T12:34:53.599Z,99626.93
2019-02-08T12:37:58.905Z,99626.63
2019-02-08T12:41:09.693Z,99612.36
2019-02-08T12:44:12.026Z,99605.56
2019-02-08T12:47:17.547Z,99604.21
2019-02-08T12:50:22.890Z,99600.50
2019-02-08T12:53:28.228Z,99599.52
2019-02-08T12:56:33.473Z,99598.69
2019-02-08T12:59:38.848Z,99597.88
2019-02-08T13:02:44.253Z,99594.76
2019-02-08T13:05:49.546Z,99595.75
2019-02-08T13:08:54.859Z,99593.50
2019-02-08T13:12:00.680Z,99582.30
2019-02-08T13:15:07.723Z,99578.23
2019-02-08T13:18:13.033Z,99578.19
2019-02-08T13:21:18.315Z,99571.12
2019-02-08T13:24:24.981Z,99570.45
2019-02-08T13:27:30.314Z,99573.42
2019-02-08T13:30:35.906Z,99572.89
2019-02-08T13:33:41.210Z,99562.48
2019-02-08T13:36:46.544Z,99571.08
2019-02-08T13:39:52.030Z,99568.17
2019-02-08T13:42:57.318Z,99565.84
2019-02-08T13:46:02.891Z,99569.05
2019-02-08T13:49:08.271Z,99567.50
2019-02-08T13:52:13.622Z,99558.73
2019-02-08T13:55:20.127Z,99553.86
2019-02-08T13:58:25.529Z,99551.08
2019-02-08T14:01:30.866Z,99545.30
2019-02-08T14:04:36.192Z,99543.02
2019-02-08T14:07:41.583Z,99538.26
2019-02-08T14:10:46.796Z,99537.44
2019-02-08T14:13:52.106Z,99532.89
2019-02-08T14:16:57.449Z,99524.70
2019-02-08T14:20:02.795Z,99525.23
2019-02-08T14:23:08.044Z,99525.41
2019-02-08T14:26:13.500Z,99522.13
2019-02-08T14:29:18.849Z,99520.59
2019-02-08T14:32:24.178Z,99515.28
2019-02-08T14:35:29.739Z,99513.56
2019-02-08T14:38:35.614Z,99515.30
2019-02-08T14:41:41.036Z,99512.02
2019-02-08T14:44:46.363Z,99508.78
2019-02-08T14:47:51.804Z,99500.35
2019-02-08T14:50:57.153Z,99497.76
2019-02-08T14:54:02.641Z,99498.59
2019-02-08T14:57:16.324Z,99490.12
2019-02-08T15:00:18.013Z,99482.26
2019-02-08T15:03:23.378Z,99479.38
2019-02-08T15:06:28.629Z,99478.13
2019-02-08T15:09:33.902Z,99483.72
2019-02-08T15:12:39.446Z,99475.36
2019-02-08T15:15:44.726Z,99476.29
2019-02-08T15:18:50.019Z,99482.51
2019-02-08T15:21:55.348Z,99482.30
2019-02-08T15:25:00.693Z,99471.77
2019-02-08T15:28:06.255Z,99473.11
2019-02-08T15:31:11.573Z,99473.93
2019-02-08T15:34:16.866Z,99466.50
2019-02-08T15:37:22.256Z,99465.13
2019-02-08T15:40:42.632Z,99457.41
2019-02-08T15:43:47.922Z,99467.91
2019-02-08T15:46:53.465Z,99458.20
2019-02-08T15:49:58.797Z,99455.10
2019-02-08T15:53:04.177Z,99452.31
2019-02-08T15:56:13.637Z,99448.36
2019-02-08T15:59:18.980Z,99444.86
2019-02-08T16:02:24.286Z,99439.69
2019-02-08T16:05:30.556Z,99433.47
2019-02-08T16:08:35.886Z,99433.30
2019-02-08T16:11:41.283Z,99427.44
2019-02-08T16:14:46.575Z,99425.95
2019-02-08T16:17:52.427Z,99421.97
2019-02-08T16:20:57.813Z,99414.32
2019-02-08T16:24:03.215Z,99415.59
2019-02-08T16:27:08.574Z,99412.50
2019-02-08T16:30:19.598Z,99417.48
2019-02-08T16:33:24.949Z,99414.50
2019-02-08T16:36:30.237Z,99415.98
2019-02-08T16:39:35.608Z,99419.44
2019-02-08T16:42:41.015Z,99418.89
2019-02-08T16:45:46.533Z,99415.89
2019-02-08T16:48:51.998Z,99420.41
2019-02-08T16:52:28.496Z,99408.49
2019-02-08T16:55:37.762Z,99414.79
2019-02-08T16:58:43.296Z,99418.16
2019-02-08T17:01:48.683Z,99416.73
2019-02-08T17:04:54.053Z,99407.13
2019-02-08T17:07:59.624Z,99399.55
2019-02-08T17:11:18.519Z,99393.91
2019-02-08T17:14:23.857Z,99400.56
2019-02-08T17:17:29.173Z,99396.48
2019-02-08T17:20:39.743Z,99388.25
2019-02-08T17:23:45.103Z,99384.56
2019-02-08T17:26:50.538Z,99374.85
2019-02-08T17:29:56.934Z,99378.00
2019-02-08T17:33:02.311Z,99370.16
2019-02-08T17:36:07.623Z,99366.88
2019-02-08T17:39:14.656Z,99366.59
2019-02-08T17:42:20.131Z,99364.42
2019-02-08T17:45:25.543Z,99357.39
2019-02-08T17:48:30.887Z,99366.95
2019-02-08T17:51:36.962Z,99360.30
2019-02-08T17:54:42.434Z,99361.20
2019-02-08T17:57:47.958Z,99359.80
2019-02-08T18:00:55.514Z,99351.56
2019-02-08T18:04:00.820Z,99350.30
2019-02-08T18:07:06.170Z,99347.86
2019-02-08T18:10:15.158Z,99346.68
2019-02-08T18:13:20.537Z,99340.87
2019-02-08T18:16:26.040Z,99350.91
2019-02-08T18:19:31.413Z,99352.50
2019-02-08T18:22:36.798Z,99345.30
2019-02-08T18:25:42.619Z,99335.48
2019-02-08T18:28:48.020Z,99327.25
2019-02-08T18:31:53.416Z,99325.41
2019-02-08T18:34:58.949Z,99326.64
2019-02-08T18:38:05.276Z,99323.27
2019-02-08T18:41:10.665Z,99315.55
2019-02-08T18:44:16.097Z,99304.80
2019-02-08T18:47:21.485Z,99313.50
2019-02-08T18:50:29.176Z,99304.19
2019-02-08T18:53:34.478Z,99307.10
2019-02-08T18:56:39.785Z,99312.84
2019-02-08T18:59:45.320Z,99309.61
2019-02-08T19:02:50.686Z,99299.25
2019-02-08T19:05:56.053Z,99301.13
2019-02-08T19:09:01.359Z,99302.45
2019-02-08T19:12:08.380Z,99304.17
2019-02-08T19:15:15.351Z,99295.38
2019-02-08T19:18:20.654Z,99300.14
2019-02-08T19:21:25.995Z,99286.58
2019-02-08T19:24:31.374Z,99297.08
2019-02-08T19:27:36.835Z,99285.37
2019-02-08T19:30:42.767Z,99275.94
2019-02-08T19:33:48.142Z,99276.95
2019-02-08T19:36:53.616Z,99278.31
2019-02-08T19:39:59.137Z,99270.81
2019-02-08T19:43:04.860Z,99270.97
2019-02-08T19:46:10.304Z,99268.31
2019-02-08T19:49:15.979Z,99260.19
2019-02-08T19:52:21.284Z,99253.38
2019-02-08T19:55:27.106Z,99252.56
2019-02-08T19:58:34.847Z,99248.77
2019-02-08T20:01:40.461Z,99238.45
2019-02-08T20:04:45.878Z,99236.23
2019-02-08T20:07:51.848Z,99236.42
2019-02-08T20:10:57.291Z,99229.78
2019-02-08T20:14:02.854Z,99227.04
2019-02-08T20:17:08.565Z,99219.06
2019-02-08T20:20:14.129Z,99224.77
2019-02-08T20:23:19.765Z,99224.63
2019-02-08T20:26:25.340Z,99226.33
2019-02-08T20:29:31.934Z,99224.15
2019-02-08T20:32:38.454Z,99221.72
2019-02-08T20:35:43.879Z,99222.23
2019-02-08T20:38:49.420Z,99215.23
2019-02-08T20:41:54.808Z,99207.48
2019-02-08T20:45:00.303Z,99209.01
2019-02-08T20:48:12.135Z,99204.60
2019-02-08T20:51:17.482Z,99207.68
2019-02-08T20:54:22.927Z,99205.72
2019-02-08T20:57:28.294Z,99190.41
2019-02-08T21:00:37.013Z,99187.95
2019-02-08T21:03:42.294Z,99183.14
2019-02-08T21:06:47.803Z,99186.78
2019-02-08T21:09:53.312Z,99173.07
2019-02-08T21:12:58.726Z,99176.75
2019-02-08T21:16:04.207Z,99163.77
2019-02-08T21:19:09.791Z,99157.48
2019-02-08T21:22:15.152Z,99162.48
2019-02-08T21:25:23.093Z,99156.04
2019-02-08T21:28:29.455Z,99157.91
2019-02-08T21:31:34.791Z,99154.94
2019-02-08T21:34:40.234Z,99145.33
2019-02-08T21:37:45.894Z,99143.65
2019-02-08T21:40:51.307Z,99136.03
2019-02-08T21:43:56.792Z,99134.39
2019-02-08T21:47:02.111Z,99130.59
2019-02-08T21:50:10.298Z,99125.32
2019-02-08T21:53:15.690Z,99119.06
2019-02-08T21:56:21.266Z,99124.68
2019-02-08T21:59:26.827Z,99119.88
2019-02-08T22:02:32.272Z,99124.23
2019-02-08T22:06:00.956Z,99116.77
2019-02-08T22:09:08.920Z,99114.22
2019-02-08T22:12:15.792Z,99109.61
2019-02-08T22:15:24.770Z,99093.69
2019-02-08T22:18:30.078Z,99096.50
2019-02-08T22:21:35.454Z,99088.41
2019-02-08T22:24:40.902Z,99085.91
2019-02-08T22:27:46.441Z,99085.25
2019-02-08T22:30:51.754Z,99076.78
2019-02-08T22:33:57.149Z,99078.42
2019-02-08T22:37:02.449Z,99067.45
2019-02-08T22:40:10.826Z,99064.48
2019-02-08T22:43:16.215Z,99060.91
2019-02-08T22:46:21.820Z,99057.94
2019-02-08T22:49:27.177Z,99046.03
2019-02-08T22:52:32.435Z,99042.20
2019-02-08T22:55:37.892Z,99041.84
2019-02-08T22:58:43.346Z,99053.29
2019-02-08T23:01:51.508Z,99040.80
2019-02-08T23:04:59.861Z,99043.14
2019-02-08T23:08:06.248Z,99044.00
2019-02-08T23:11:11.637Z,99042.13
2019-02-08T23:14:17.048Z,99040.22
2019-02-08T23:17:22.346Z,99040.45
2019-02-08T23:20:27.795Z,99041.77
2019-02-08T23:23:33.422Z,99040.01
2019-02-08T23:26:38.816Z,99033.03
2019-02-08T23:29:44.147Z,99030.38
2019-02-08T23:32:49.574Z,99028.11
2019-02-08T23:35:55.074Z,99024.20
2019-02-08T23:39:00.403Z,99017.31
2019-02-08T23:42:07.342Z,98996.71
2019-02-08T23:45:14.003Z,98994.52
2019-02-08T23:48:19.294Z,98994.33
2019-02-08T23:51:24.722Z,98980.89
2019-02-08T23:54:29.954Z,98966.73
2019-02-08T23:57:36.279Z,98960.28
